PWSweather.com
Personal Weather Stations
Station Observations
OBERT
Bodensee Hinterland, OberteuringenDE

Bodensee HinterlandOberteuringenDE

Lat: 47.714675, Lon: 9.44447

Elevation: 1427

Station Type: Wunder Weather Station

Latest ConditionsUpdated 9:53:09 PM GMT+01:01 Thursday, Sep 21, 2017
Currently Today's Max Today's Min Today's Average
Temperature 49.2°F9.6°C 75.9°F24.4°C 37.2°F2.9°C 53.7°F12.1°C
Dew Point 48.6°F9.2°C 55.2°F12.9°C 37.2°F2.9°C 46.7°F8.2°C
Winds 1.7 mph 2.7 kmh 6.5 mph WNW10.5 kmh WNW - 1.7 mph 2.7 kmh
Wind Gusts 3.4 mph5.5 kmh 11.2 mph18.0 kmh - -
Humidity 97% 100% 43% 81%
Pressure 30.10 in1019.3 mb 30.17 in1021.7 mb 30.06 in1017.9 mb -
Hour Temp Dew Point Humidity Winds Wind Gusts Pressure Precip Precip Rate Daily Precip Total
09:53 PM 49.2°F9.6°C 48.6°F9.2°C 97% 1.7 mph 2.7 kmh 3.4 mph5.5 kmh 30.10 in1019.3 mb 0.00 in0.0 mm 0.00 in0.0 mm 0.00 in0.0 mm
09:23 PM 51.2°F10.7°C 49.3°F9.6°C 93% 2.9 mph 4.7 kmh 7.1 mph11.4 kmh 30.09 in1019.0 mb 0.00 in0.0 mm 0.00 in0.0 mm 0.00 in0.0 mm
08:53 PM 51.2°F10.7°C 49.4°F9.7°C 93% 2.4 mph N3.9 kmh N 5.0 mph8.0 kmh 30.09 in1019.0 mb 0.00 in0.0 mm 0.00 in0.0 mm 0.00 in0.0 mm
08:23 PM 51.6°F10.9°C 49.7°F9.8°C 93% Calm Calm 2.8 mph4.5 kmh 30.09 in1019.0 mb 0.00 in0.0 mm 0.00 in0.0 mm 0.00 in0.0 mm
07:53 PM 53.0°F11.7°C 49.7°F9.8°C 88% 1.8 mph N2.9 kmh N 3.7 mph6.0 kmh 30.08 in1018.6 mb 0.00 in0.0 mm 0.00 in0.0 mm 0.00 in0.0 mm
07:23 PM 53.4°F11.9°C 49.6°F9.8°C 87% 1.0 mph NNW1.6 kmh NNW 4.0 mph6.4 kmh 30.08 in1018.6 mb 0.00 in0.0 mm 0.00 in0.0 mm 0.00 in0.0 mm
07:10 PM 53.4°F11.9°C 49.7°F9.8°C 87% 1.6 mph NNW2.6 kmh NNW 3.4 mph5.5 kmh 30.08 in1018.6 mb 0.00 in0.0 mm 0.00 in0.0 mm 0.00 in0.0 mm
06:40 PM 54.8°F12.7°C 49.8°F9.9°C 83% 1.6 mph N2.6 kmh N 2.8 mph4.5 kmh 30.07 in1018.3 mb 0.00 in0.0 mm 0.00 in0.0 mm 0.00 in0.0 mm
06:10 PM 59.1°F15.1°C 50.4°F10.2°C 72% Calm Calm -- 30.07 in1018.3 mb 0.00 in0.0 mm 0.00 in0.0 mm 0.00 in0.0 mm
05:40 PM 74.3°F23.5°C 55.2°F12.9°C 51% Calm Calm -- 30.07 in1018.3 mb 0.00 in0.0 mm 0.00 in0.0 mm 0.00 in0.0 mm
05:10 PM 75.9°F24.4°C 53.0°F11.7°C 45% 2.3 mph NW3.7 kmh NW 5.3 mph8.5 kmh 30.07 in1018.3 mb 0.00 in0.0 mm 0.00 in0.0 mm 0.00 in0.0 mm
04:40 PM 75.2°F24.0°C 52.0°F11.1°C 44% 2.3 mph NW3.7 kmh NW 8.4 mph13.5 kmh 30.06 in1017.9 mb 0.00 in0.0 mm 0.00 in0.0 mm 0.00 in0.0 mm
04:09 PM 73.0°F22.8°C 49.3°F9.6°C 43% 4.5 mph NNW7.2 kmh NNW 9.3 mph15.0 kmh 30.07 in1018.3 mb 0.00 in0.0 mm 0.00 in0.0 mm 0.00 in0.0 mm
03:38 PM 70.8°F21.6°C 49.5°F9.7°C 46% 3.1 mph 5.0 kmh 7.1 mph11.4 kmh 30.07 in1018.3 mb 0.00 in0.0 mm 0.00 in0.0 mm 0.00 in0.0 mm
03:08 PM 69.8°F21.0°C 50.0°F10.0°C 49% 0.5 mph N0.8 kmh N 9.0 mph14.5 kmh 30.07 in1018.3 mb 0.00 in0.0 mm 0.00 in0.0 mm 0.00 in0.0 mm
02:38 PM 66.5°F19.2°C 47.6°F8.7°C 50% 6.5 mph WNW10.5 kmh WNW 9.3 mph15.0 kmh 30.08 in1018.6 mb 0.00 in0.0 mm 0.00 in0.0 mm 0.00 in0.0 mm
02:08 PM 66.0°F18.9°C 50.2°F10.1°C 56% 2.9 mph NW4.7 kmh NW 11.2 mph18.0 kmh 30.08 in1018.6 mb 0.00 in0.0 mm 0.00 in0.0 mm 0.00 in0.0 mm
01:37 PM 67.6°F19.8°C 50.3°F10.2°C 53% 3.0 mph NNW4.8 kmh NNW 9.3 mph15.0 kmh 30.09 in1019.0 mb 0.00 in0.0 mm 0.00 in0.0 mm 0.00 in0.0 mm
01:07 PM 67.8°F19.9°C 52.0°F11.1°C 57% 4.9 mph NNW7.9 kmh NNW 10.3 mph16.6 kmh 30.10 in1019.3 mb 0.00 in0.0 mm 0.00 in0.0 mm 0.00 in0.0 mm
12:34 PM 66.5°F19.2°C 53.3°F11.8°C 62% 1.9 mph NNW3.1 kmh NNW 9.6 mph15.4 kmh 30.11 in1019.6 mb 0.00 in0.0 mm 0.00 in0.0 mm 0.00 in0.0 mm
12:04 PM 64.4°F18.0°C 51.5°F10.8°C 63% 5.2 mph 8.4 kmh 10.3 mph16.6 kmh 30.12 in1020.0 mb 0.00 in0.0 mm 0.00 in0.0 mm 0.00 in0.0 mm
11:34 AM 63.8°F17.7°C 51.2°F10.7°C 63% 4.2 mph NW6.8 kmh NW 9.3 mph15.0 kmh 30.13 in1020.3 mb 0.00 in0.0 mm 0.00 in0.0 mm 0.00 in0.0 mm
11:04 AM 63.8°F17.7°C 52.2°F11.2°C 65% 1.1 mph N1.8 kmh N 10.0 mph16.1 kmh 30.13 in1020.3 mb 0.00 in0.0 mm 0.00 in0.0 mm 0.00 in0.0 mm
10:34 AM 61.8°F16.6°C 50.0°F10.0°C 65% 3.3 mph NNW5.3 kmh NNW 8.4 mph13.5 kmh 30.14 in1020.7 mb 0.00 in0.0 mm 0.00 in0.0 mm 0.00 in0.0 mm
10:04 AM 58.8°F14.9°C 49.9°F9.9°C 72% 4.5 mph NNW7.2 kmh NNW 7.1 mph11.4 kmh 30.14 in1020.7 mb 0.00 in0.0 mm 0.00 in0.0 mm 0.00 in0.0 mm
09:34 AM 56.1°F13.4°C 49.4°F9.7°C 78% 1.9 mph N3.1 kmh N 6.2 mph10.0 kmh 30.14 in1020.7 mb 0.00 in0.0 mm 0.00 in0.0 mm 0.00 in0.0 mm
09:04 AM 54.8°F12.7°C 49.9°F9.9°C 83% 3.6 mph NNW5.8 kmh NNW 5.9 mph9.5 kmh 30.14 in1020.7 mb 0.00 in0.0 mm 0.00 in0.0 mm 0.00 in0.0 mm
08:34 AM 52.3°F11.3°C 49.3°F9.6°C 89% 2.3 mph N3.7 kmh N 6.2 mph10.0 kmh 30.15 in1021.0 mb 0.00 in0.0 mm 0.00 in0.0 mm 0.00 in0.0 mm
08:04 AM 49.2°F9.6°C 49.2°F9.6°C 100% 1.8 mph NNW2.9 kmh NNW 4.0 mph6.4 kmh 30.16 in1021.3 mb 0.00 in0.0 mm 0.00 in0.0 mm 0.00 in0.0 mm
07:34 AM 45.5°F7.5°C 45.5°F7.5°C 100% 2.6 mph N4.2 kmh N 3.4 mph5.5 kmh 30.16 in1021.3 mb 0.00 in0.0 mm 0.00 in0.0 mm 0.00 in0.0 mm
07:04 AM 41.1°F5.1°C 41.1°F5.1°C 100% 0.6 mph N1.0 kmh N 3.4 mph5.5 kmh 30.15 in1021.0 mb 0.00 in0.0 mm 0.00 in0.0 mm 0.00 in0.0 mm
06:34 AM 37.2°F2.9°C 37.2°F2.9°C 100% Calm Calm -- 30.15 in1021.0 mb 0.00 in0.0 mm 0.00 in0.0 mm 0.00 in0.0 mm
06:04 AM 37.7°F3.2°C 37.7°F3.2°C 100% Calm Calm 1.5 mph2.4 kmh 30.15 in1021.0 mb 0.00 in0.0 mm 0.00 in0.0 mm 0.00 in0.0 mm
05:34 AM 37.9°F3.3°C 37.9°F3.3°C 100% Calm Calm -- 30.15 in1021.0 mb 0.00 in0.0 mm 0.00 in0.0 mm 0.00 in0.0 mm
05:04 AM 38.4°F3.6°C 38.4°F3.6°C 100% Calm Calm -- 30.15 in1021.0 mb 0.00 in0.0 mm 0.00 in0.0 mm 0.00 in0.0 mm
04:34 AM 39.0°F3.9°C 39.0°F3.9°C 100% Calm Calm -- 30.16 in1021.3 mb 0.00 in0.0 mm 0.00 in0.0 mm 0.00 in0.0 mm
04:04 AM 39.5°F4.2°C 39.5°F4.2°C 100% 0.4 mph N0.6 kmh N 1.8 mph2.9 kmh 30.16 in1021.3 mb 0.00 in0.0 mm 0.00 in0.0 mm 0.00 in0.0 mm
03:34 AM 39.9°F4.4°C 39.9°F4.4°C 100% 0.3 mph N0.5 kmh N 1.8 mph2.9 kmh 30.16 in1021.3 mb 0.00 in0.0 mm 0.00 in0.0 mm 0.00 in0.0 mm
03:04 AM 40.1°F4.5°C 40.1°F4.5°C 100% Calm Calm 2.1 mph3.4 kmh 30.16 in1021.3 mb 0.00 in0.0 mm 0.00 in0.0 mm 0.00 in0.0 mm
02:34 AM 39.9°F4.4°C 39.9°F4.4°C 100% 0.4 mph N0.6 kmh N 2.1 mph3.4 kmh 30.17 in1021.7 mb 0.00 in0.0 mm 0.00 in0.0 mm 0.00 in0.0 mm
02:04 AM 40.1°F4.5°C 40.1°F4.5°C 100% 0.3 mph N0.5 kmh N 2.1 mph3.4 kmh 30.17 in1021.7 mb 0.00 in0.0 mm 0.00 in0.0 mm 0.00 in0.0 mm
01:34 AM 40.8°F4.9°C 40.8°F4.9°C 100% Calm Calm 2.1 mph3.4 kmh 30.17 in1021.7 mb 0.00 in0.0 mm 0.00 in0.0 mm 0.00 in0.0 mm
01:04 AM 41.0°F5.0°C 41.0°F5.0°C 100% Calm Calm -- 30.17 in1021.7 mb 0.00 in0.0 mm 0.00 in0.0 mm 0.00 in0.0 mm
12:52 AM 41.0°F5.0°C 41.0°F5.0°C 100% Calm Calm 0.3 mph0.5 kmh 30.17 in1021.7 mb 0.00 in0.0 mm 0.00 in0.0 mm 0.00 in0.0 mm
12:22 AM 40.1°F4.5°C 40.1°F4.5°C 100% Calm Calm -- 30.17 in1021.7 mb 0.00 in0.0 mm 0.00 in0.0 mm 0.00 in0.0 mm